createdAt,value
2022-11-22T00:00:45.876Z,22.41
2022-11-22T00:03:13.817Z,22.42
2022-11-22T00:05:41.790Z,22.42
2022-11-22T00:08:09.882Z,22.41
2022-11-22T00:10:39.203Z,22.41
2022-11-22T00:13:07.136Z,22.42
2022-11-22T00:15:35.128Z,22.41
2022-11-22T00:18:03.082Z,22.41
2022-11-22T00:20:31.036Z,22.39
2022-11-22T00:22:59.022Z,22.41
2022-11-22T00:25:26.963Z,22.41
2022-11-22T00:27:56.341Z,22.38
2022-11-22T00:30:24.204Z,22.40
2022-11-22T00:32:53.158Z,22.40
2022-11-22T00:35:21.162Z,22.40
2022-11-22T00:37:49.076Z,22.40
2022-11-22T00:40:18.446Z,22.39
2022-11-22T00:42:46.363Z,22.40
2022-11-22T00:45:15.810Z,22.37
2022-11-22T00:47:43.798Z,22.38
2022-11-22T00:50:11.907Z,22.38
2022-11-22T00:52:39.878Z,22.37
2022-11-22T00:55:08.775Z,22.37
2022-11-22T00:57:36.775Z,22.37
2022-11-22T01:00:06.859Z,22.37
2022-11-22T01:02:36.183Z,22.35
2022-11-22T01:05:04.103Z,22.36
2022-11-22T01:07:32.294Z,22.35
2022-11-22T01:10:00.218Z,22.36
2022-11-22T01:12:28.126Z,22.36
2022-11-22T01:14:55.990Z,22.35
2022-11-22T01:17:23.978Z,22.35
2022-11-22T01:19:54.677Z,22.35
2022-11-22T01:22:22.652Z,22.35
2022-11-22T01:24:50.591Z,22.33
2022-11-22T01:27:18.462Z,22.32
2022-11-22T01:29:46.435Z,22.31
2022-11-22T01:32:14.315Z,22.29
2022-11-22T01:34:42.270Z,22.29
2022-11-22T01:37:11.636Z,22.30
2022-11-22T01:39:39.588Z,22.29
2022-11-22T01:42:07.618Z,22.28
2022-11-22T01:44:35.542Z,22.27
2022-11-22T01:47:05.321Z,22.29
2022-11-22T01:49:34.851Z,22.28
2022-11-22T01:52:04.538Z,22.27
2022-11-22T01:54:35.062Z,22.27
2022-11-22T01:57:04.849Z,22.25
2022-11-22T01:59:33.713Z,22.25
2022-11-22T02:02:01.735Z,22.25
2022-11-22T02:04:29.865Z,22.24
2022-11-22T02:07:00.986Z,22.24
2022-11-22T02:09:29.214Z,22.24
2022-11-22T02:11:59.756Z,22.24
2022-11-22T02:14:29.010Z,22.23
2022-11-22T02:16:57.023Z,22.23
2022-11-22T02:19:28.338Z,22.22
2022-11-22T02:21:57.858Z,22.22
2022-11-22T02:24:27.682Z,22.21
2022-11-22T02:26:57.029Z,22.21
2022-11-22T02:29:24.996Z,22.20
2022-11-22T02:31:52.992Z,22.21
2022-11-22T02:34:20.941Z,22.19
2022-11-22T02:36:50.439Z,22.20
2022-11-22T02:39:19.704Z,22.20
2022-11-22T02:41:47.674Z,22.19
2022-11-22T02:44:17.011Z,22.20
2022-11-22T02:46:49.263Z,22.20
2022-11-22T02:49:19.716Z,22.20
2022-11-22T02:51:47.828Z,22.20
2022-11-22T02:54:15.720Z,22.21
2022-11-22T02:56:43.896Z,22.21
2022-11-22T02:59:11.934Z,22.21
2022-11-22T03:01:41.354Z,22.21
2022-11-22T03:04:09.277Z,22.21
2022-11-22T03:06:37.274Z,22.23
2022-11-22T03:09:05.203Z,22.22
2022-11-22T03:11:33.156Z,22.22
2022-11-22T03:14:01.115Z,22.21
2022-11-22T03:16:30.935Z,22.21
2022-11-22T03:19:00.338Z,22.21
2022-11-22T03:21:29.757Z,22.21
2022-11-22T03:23:57.748Z,22.22
2022-11-22T03:26:25.783Z,22.20
2022-11-22T03:28:53.736Z,22.21
2022-11-22T03:31:21.703Z,22.22
2022-11-22T03:33:49.668Z,22.22
2022-11-22T03:36:18.978Z,22.21
2022-11-22T03:38:46.865Z,22.21
2022-11-22T03:41:14.814Z,22.21
2022-11-22T03:43:42.816Z,22.20
2022-11-22T03:46:15.375Z,22.21
2022-11-22T03:48:43.733Z,22.20
2022-11-22T03:51:11.618Z,22.19
2022-11-22T03:53:40.963Z,22.19
2022-11-22T03:56:08.977Z,22.19
2022-11-22T03:58:36.931Z,22.17
2022-11-22T04:01:04.945Z,22.17
2022-11-22T04:03:32.903Z,22.17
2022-11-22T04:06:00.846Z,22.17
2022-11-22T04:08:28.897Z,22.17
2022-11-22T04:10:58.216Z,22.16
2022-11-22T04:13:46.425Z,22.16
2022-11-22T04:16:13.437Z,22.15
2022-11-22T04:18:41.423Z,22.14
2022-11-22T04:21:26.846Z,22.12
2022-11-22T04:24:08.654Z,22.14
2022-11-22T04:26:38.011Z,22.13
2022-11-22T04:29:10.318Z,22.13
2022-11-22T04:31:55.935Z,22.13
2022-11-22T04:34:24.499Z,22.12
2022-11-22T04:36:52.567Z,22.11
2022-11-22T04:39:20.516Z,22.12
2022-11-22T04:42:10.381Z,22.11
2022-11-22T04:44:41.596Z,22.11
2022-11-22T04:47:09.827Z,22.12
2022-11-22T04:49:37.725Z,22.10
2022-11-22T04:52:24.405Z,22.11
2022-11-22T04:54:54.398Z,22.09
2022-11-22T04:57:23.694Z,22.09
2022-11-22T04:59:53.114Z,22.09
2022-11-22T05:02:22.366Z,22.08
2022-11-22T05:04:50.921Z,22.10
2022-11-22T05:07:19.006Z,22.09
2022-11-22T05:09:46.946Z,22.11
2022-11-22T05:12:14.834Z,22.10
2022-11-22T05:14:44.228Z,22.11
2022-11-22T05:17:13.509Z,22.11
2022-11-22T05:19:44.982Z,22.12
2022-11-22T05:22:17.062Z,22.10
2022-11-22T05:24:44.084Z,22.12
2022-11-22T05:27:12.074Z,22.12
2022-11-22T05:29:40.053Z,22.12
2022-11-22T05:32:09.372Z,22.12
2022-11-22T05:34:37.257Z,22.13
2022-11-22T05:37:05.194Z,22.12
2022-11-22T05:39:33.137Z,22.13
2022-11-22T05:42:01.058Z,22.12
2022-11-22T05:44:29.047Z,22.12
2022-11-22T05:46:56.931Z,22.13
2022-11-22T05:49:26.209Z,22.13
2022-11-22T05:51:54.210Z,22.12
2022-11-22T05:54:22.182Z,22.13
2022-11-22T05:56:50.178Z,22.12
2022-11-22T05:59:18.188Z,22.12
2022-11-22T06:01:47.612Z,22.11
2022-11-22T06:04:15.513Z,22.11
2022-11-22T06:06:44.785Z,22.11
2022-11-22T06:09:12.738Z,22.12
2022-11-22T06:11:40.677Z,22.12
2022-11-22T06:14:10.302Z,22.11
2022-11-22T06:16:38.193Z,22.11
2022-11-22T06:19:06.202Z,22.13
2022-11-22T06:21:34.094Z,22.12
2022-11-22T06:24:03.367Z,22.14
2022-11-22T06:26:34.745Z,22.13
2022-11-22T06:29:06.925Z,22.13
2022-11-22T06:31:34.793Z,22.13
2022-11-22T06:34:02.738Z,22.13
2022-11-22T06:36:31.426Z,22.14
2022-11-22T06:38:59.454Z,22.13
2022-11-22T06:41:29.723Z,22.15
2022-11-22T06:43:57.703Z,22.15
2022-11-22T06:46:27.315Z,22.14
2022-11-22T06:48:55.242Z,22.15
2022-11-22T06:51:23.686Z,22.15
2022-11-22T06:53:51.686Z,22.15
2022-11-22T06:56:20.445Z,22.16
2022-11-22T06:58:50.418Z,22.15
2022-11-22T07:01:19.310Z,22.17
2022-11-22T07:03:47.373Z,22.17
2022-11-22T07:06:15.847Z,22.17
2022-11-22T07:08:44.402Z,22.17
2022-11-22T07:11:13.013Z,22.19
2022-11-22T07:13:40.988Z,22.19
2022-11-22T07:16:11.619Z,22.21
2022-11-22T07:18:39.661Z,22.21
2022-11-22T07:21:12.860Z,22.24
2022-11-22T07:23:41.343Z,22.26
2022-11-22T07:26:09.278Z,22.26
2022-11-22T07:28:37.265Z,22.28
2022-11-22T07:31:06.117Z,22.28
2022-11-22T07:33:35.533Z,22.29
2022-11-22T07:36:05.303Z,22.29
2022-11-22T07:38:33.271Z,22.30
2022-11-22T07:41:01.139Z,22.30
2022-11-22T07:43:29.040Z,22.32
2022-11-22T07:45:59.854Z,22.32
2022-11-22T07:48:27.730Z,22.33
2022-11-22T07:50:57.019Z,22.33
2022-11-22T07:53:24.901Z,22.33
2022-11-22T07:55:52.836Z,22.34
2022-11-22T07:58:20.743Z,22.36
2022-11-22T08:00:48.691Z,22.36
2022-11-22T08:03:17.922Z,22.37
2022-11-22T08:05:46.571Z,22.36
2022-11-22T08:08:15.901Z,22.35
2022-11-22T08:10:45.165Z,22.35
2022-11-22T08:13:13.227Z,22.35
2022-11-22T08:15:41.188Z,22.36
2022-11-22T08:18:09.148Z,22.37
2022-11-22T08:20:37.075Z,22.36
2022-11-22T08:23:05.032Z,22.35
2022-11-22T08:25:34.314Z,22.35
2022-11-22T08:28:02.253Z,22.37
2022-11-22T08:30:30.196Z,22.38
2022-11-22T08:32:58.192Z,22.36
2022-11-22T08:35:26.104Z,22.36
2022-11-22T08:37:57.294Z,22.35
2022-11-22T08:40:25.537Z,22.35
2022-11-22T08:42:56.941Z,22.35
2022-11-22T08:45:24.953Z,22.33
2022-11-22T08:47:52.884Z,22.34
2022-11-22T08:50:20.876Z,22.34
2022-11-22T08:52:48.822Z,22.35
2022-11-22T08:55:16.855Z,22.35
2022-11-22T08:57:45.007Z,22.36
2022-11-22T09:00:16.232Z,22.37
2022-11-22T09:02:44.473Z,22.36
2022-11-22T09:05:12.424Z,22.35
2022-11-22T09:10:28.604Z,22.37
2022-11-22T09:12:56.581Z,22.38
2022-11-22T09:15:25.916Z,22.41
2022-11-22T09:17:53.796Z,22.44
2022-11-22T09:20:21.817Z,22.45
2022-11-22T09:22:49.853Z,22.43
2022-11-22T09:25:17.997Z,22.42
2022-11-22T09:27:46.122Z,22.43
2022-11-22T09:30:15.124Z,22.41
2022-11-22T09:32:48.486Z,22.41
2022-11-22T09:35:20.253Z,22.41
2022-11-22T09:37:48.202Z,22.41
2022-11-22T09:40:16.478Z,22.40
2022-11-22T09:43:06.518Z,22.41
2022-11-22T09:48:29.294Z,22.37
2022-11-22T09:50:59.194Z,22.37
2022-11-22T09:53:29.752Z,22.36
2022-11-22T09:55:58.641Z,22.35
2022-11-22T09:58:29.848Z,22.35
2022-11-22T10:01:00.836Z,22.34
2022-11-22T10:03:31.872Z,22.33
2022-11-22T10:06:01.327Z,22.32
2022-11-22T10:08:37.057Z,22.32
2022-11-22T10:11:05.908Z,22.30
2022-11-22T10:13:36.702Z,22.29
2022-11-22T10:16:06.623Z,22.28
2022-11-22T10:18:39.917Z,22.27
2022-11-22T10:21:11.158Z,22.25
2022-11-22T10:23:39.150Z,22.24
2022-11-22T10:26:13.007Z,22.22
2022-11-22T10:28:44.347Z,22.22
2022-11-22T10:31:16.540Z,22.20
2022-11-22T10:33:48.409Z,22.19
2022-11-22T10:36:25.956Z,22.16
2022-11-22T10:39:09.741Z,22.17
2022-11-22T10:41:46.336Z,22.16
2022-11-22T10:44:21.037Z,22.14
2022-11-22T10:46:56.473Z,22.14
2022-11-22T10:49:30.521Z,22.12
2022-11-22T10:52:00.369Z,22.15
2022-11-22T10:54:30.430Z,22.19
2022-11-22T10:57:00.572Z,22.17
2022-11-22T10:59:37.693Z,22.15
2022-11-22T11:02:16.326Z,22.15
2022-11-22T11:04:45.846Z,22.15
2022-11-22T11:07:15.883Z,22.16
2022-11-22T11:12:43.287Z,22.16
2022-11-22T11:15:16.886Z,22.17
2022-11-22T11:17:44.854Z,22.15
2022-11-22T11:20:17.455Z,22.16
2022-11-22T11:23:13.031Z,22.17
2022-11-22T11:25:34.451Z,22.16
2022-11-22T11:28:04.975Z,22.17
2022-11-22T11:30:39.275Z,22.15
2022-11-22T11:33:17.687Z,22.16
2022-11-22T11:35:47.159Z,22.14
2022-11-22T11:38:31.159Z,22.13
2022-11-22T11:40:59.269Z,22.13
2022-11-22T11:43:27.377Z,22.14
2022-11-22T11:45:55.388Z,22.14
2022-11-22T11:48:30.239Z,22.12
2022-11-22T11:51:24.595Z,22.12
2022-11-22T11:53:56.193Z,22.10
2022-11-22T11:56:33.803Z,22.08
2022-11-22T11:59:05.860Z,22.06
2022-11-22T12:01:38.805Z,22.05
2022-11-22T12:04:07.729Z,22.06
2022-11-22T12:06:36.979Z,22.05
2022-11-22T12:09:10.768Z,22.02
2022-11-22T12:11:45.431Z,22.01
2022-11-22T12:14:21.454Z,22.01
2022-11-22T12:16:49.872Z,22.00
2022-11-22T12:19:25.021Z,21.98
2022-11-22T12:21:57.415Z,21.98
2022-11-22T12:25:03.111Z,21.99
2022-11-22T12:27:17.005Z,21.98
2022-11-22T12:29:45.555Z,21.98
2022-11-22T12:32:15.664Z,21.97
2022-11-22T12:34:47.892Z,21.99
2022-11-22T12:37:18.536Z,21.99
2022-11-22T12:39:50.255Z,21.98
2022-11-22T12:42:23.293Z,21.84
2022-11-22T12:44:54.430Z,21.82
2022-11-22T12:47:23.884Z,21.84
2022-11-22T12:49:53.300Z,21.85
2022-11-22T12:52:24.668Z,21.86
2022-11-22T12:54:59.224Z,21.86
2022-11-22T12:57:30.159Z,21.86
2022-11-22T13:00:03.118Z,21.85
2022-11-22T13:02:33.311Z,21.84
2022-11-22T13:05:03.998Z,21.83
2022-11-22T13:07:44.131Z,21.84
2022-11-22T13:10:19.593Z,21.81
2022-11-22T13:12:50.368Z,21.81
2022-11-22T13:15:20.839Z,21.82
2022-11-22T13:17:50.048Z,21.82
2022-11-22T13:20:18.814Z,21.82
2022-11-22T13:22:53.134Z,21.82
2022-11-22T13:25:43.305Z,21.82
2022-11-22T13:28:14.678Z,21.82
2022-11-22T13:30:42.963Z,21.81
2022-11-22T13:33:24.529Z,21.82
2022-11-22T13:35:52.480Z,21.82
2022-11-22T13:38:22.098Z,21.82
2022-11-22T13:40:51.349Z,21.81
2022-11-22T13:43:51.461Z,21.79
2022-11-22T13:47:00.910Z,21.78
2022-11-22T13:49:39.244Z,21.76
2022-11-22T13:52:46.878Z,21.76
2022-11-22T13:55:30.172Z,21.74
2022-11-22T13:58:22.400Z,21.73
2022-11-22T14:00:51.166Z,21.73
2022-11-22T14:03:38.155Z,21.73
2022-11-22T14:06:25.289Z,21.72
2022-11-22T14:09:17.909Z,21.73
2022-11-22T14:11:52.245Z,21.71
2022-11-22T14:14:21.915Z,21.71
2022-11-22T14:16:59.106Z,21.71
2022-11-22T14:19:35.186Z,21.70
2022-11-22T14:22:14.464Z,21.69
2022-11-22T14:24:47.688Z,21.69
2022-11-22T14:27:25.673Z,21.68
2022-11-22T14:30:02.935Z,21.68
2022-11-22T14:32:42.460Z,21.68
2022-11-22T14:35:28.969Z,21.66
2022-11-22T14:38:40.069Z,21.67
2022-11-22T14:41:42.431Z,21.67
2022-11-22T14:44:15.191Z,21.57
2022-11-22T14:46:53.332Z,21.52
2022-11-22T14:49:28.473Z,21.54
2022-11-22T14:51:57.536Z,21.55
2022-11-22T14:54:28.107Z,21.56
2022-11-22T14:56:59.908Z,21.61
2022-11-22T14:59:56.380Z,21.62
2022-11-22T15:03:06.654Z,21.63
2022-11-22T15:09:10.830Z,21.63
2022-11-22T15:09:17.237Z,21.63
2022-11-22T15:11:49.472Z,21.62
2022-11-22T15:14:43.228Z,21.64
2022-11-22T15:57:44.909Z,21.72
2022-11-22T16:00:22.220Z,21.72
2022-11-22T16:02:51.014Z,21.72
2022-11-22T16:06:04.368Z,21.72
2022-11-22T16:08:14.674Z,21.72
2022-11-22T16:10:45.638Z,21.72
2022-11-22T16:13:14.249Z,21.73
2022-11-22T16:15:42.913Z,21.73
2022-11-22T16:18:15.131Z,21.75
2022-11-22T16:20:44.354Z,21.74
2022-11-22T16:23:26.464Z,21.73
2022-11-22T16:25:57.115Z,21.74
2022-11-22T16:28:33.331Z,21.74
2022-11-22T16:31:03.948Z,21.76
2022-11-22T16:33:31.890Z,21.76
2022-11-22T16:36:02.206Z,21.73
2022-11-22T16:38:31.617Z,21.72
2022-11-22T16:41:00.773Z,21.71
2022-11-22T16:43:31.065Z,21.72
2022-11-22T16:46:01.078Z,21.71
2022-11-22T16:48:32.234Z,21.71
2022-11-22T16:51:05.180Z,21.68
2022-11-22T16:53:39.520Z,21.68
2022-11-22T16:56:08.559Z,21.68
2022-11-22T16:58:36.585Z,21.69
2022-11-22T17:01:06.364Z,21.69
2022-11-22T17:03:34.352Z,21.68
2022-11-22T17:06:03.036Z,21.69
2022-11-22T17:08:30.976Z,21.68
2022-11-22T17:11:02.177Z,21.66
2022-11-22T17:13:30.062Z,21.67
2022-11-22T17:15:59.216Z,21.66
2022-11-22T17:18:27.138Z,21.66
2022-11-22T17:20:56.174Z,21.66
2022-11-22T17:23:27.808Z,21.65
2022-11-22T17:25:56.393Z,21.66
2022-11-22T17:28:27.852Z,21.66
2022-11-22T17:30:56.517Z,21.65
2022-11-22T17:33:24.982Z,21.65
2022-11-22T17:35:52.910Z,21.65
2022-11-22T17:38:22.689Z,21.64
2022-11-22T17:40:51.334Z,21.65
2022-11-22T17:43:20.031Z,21.63
2022-11-22T17:45:49.598Z,21.64
2022-11-22T17:48:19.015Z,21.65
2022-11-22T17:50:47.035Z,21.63
2022-11-22T17:53:15.711Z,21.63
2022-11-22T17:56:09.057Z,21.60
2022-11-22T17:58:32.407Z,21.64
2022-11-22T18:01:05.667Z,21.64
2022-11-22T18:03:34.401Z,21.67
2022-11-22T18:06:02.417Z,21.68
2022-11-22T18:08:32.478Z,21.68
2022-11-22T18:11:00.822Z,21.68
2022-11-22T18:13:29.630Z,21.69
2022-11-22T18:16:03.283Z,21.69
2022-11-22T18:18:55.572Z,21.70
2022-11-22T18:21:22.089Z,21.69
2022-11-22T18:23:50.734Z,21.70
2022-11-22T18:31:56.782Z,21.70
2022-11-22T18:34:26.950Z,21.70
2022-11-22T18:37:00.893Z,21.71
2022-11-22T18:39:32.396Z,21.70
2022-11-22T18:42:00.619Z,21.71
2022-11-22T18:44:31.322Z,21.72
2022-11-22T18:46:59.270Z,21.71
2022-11-22T18:49:30.802Z,21.71
2022-11-22T18:51:58.958Z,21.71
2022-11-22T18:54:27.694Z,21.70
2022-11-22T18:56:55.574Z,21.71
2022-11-22T18:59:26.316Z,21.71
2022-11-22T19:01:55.525Z,21.70
2022-11-22T19:04:24.307Z,21.72
2022-11-22T19:06:55.425Z,21.71
2022-11-22T19:09:24.240Z,21.71
2022-11-22T19:11:58.229Z,21.74
2022-11-22T19:14:30.484Z,21.72
2022-11-22T19:16:58.695Z,21.73
2022-11-22T19:19:27.435Z,21.72
2022-11-22T19:21:56.926Z,21.73
2022-11-22T19:24:25.622Z,21.72
2022-11-22T19:26:55.869Z,21.70
2022-11-22T19:29:24.666Z,21.70
2022-11-22T19:31:52.655Z,21.70
2022-11-22T19:34:22.587Z,21.69
2022-11-22T19:36:50.505Z,21.70
2022-11-22T19:39:21.130Z,21.69
2022-11-22T19:41:49.154Z,21.68
2022-11-22T19:44:17.802Z,21.68
2022-11-22T19:46:45.864Z,21.70
2022-11-22T19:49:15.370Z,21.69
2022-11-22T19:51:43.323Z,21.69
2022-11-22T19:54:12.113Z,21.69
2022-11-22T19:56:46.535Z,21.67
2022-11-22T19:59:18.154Z,21.67
2022-11-22T20:01:46.202Z,21.65
2022-11-22T20:04:14.568Z,21.67
2022-11-22T20:06:48.614Z,21.68
2022-11-22T20:09:18.851Z,21.68
2022-11-22T20:11:48.179Z,21.71
2022-11-22T20:14:16.053Z,21.76
2022-11-22T20:16:44.794Z,21.77
2022-11-22T20:19:12.770Z,21.79
2022-11-22T20:21:41.668Z,21.81
2022-11-22T20:24:09.976Z,21.83
2022-11-22T20:26:39.426Z,21.83
2022-11-22T20:29:13.026Z,21.87
2022-11-22T20:31:41.959Z,21.89
2022-11-22T20:34:10.316Z,21.91
2022-11-22T20:36:39.030Z,21.92
2022-11-22T20:39:10.654Z,21.92
2022-11-22T20:41:39.908Z,21.94
2022-11-22T20:44:12.697Z,21.95
2022-11-22T20:46:41.661Z,21.95
2022-11-22T20:49:09.689Z,21.97
2022-11-22T20:51:40.423Z,21.99
2022-11-22T20:54:08.600Z,21.99
2022-11-22T20:56:37.469Z,22.00
2022-11-22T20:59:05.657Z,22.01
2022-11-22T21:01:37.235Z,22.03
2022-11-22T21:04:05.173Z,22.03
2022-11-22T21:06:36.453Z,22.03
2022-11-22T21:09:04.557Z,22.04
2022-11-22T21:11:33.436Z,22.06
2022-11-22T21:14:01.326Z,22.07
2022-11-22T21:16:30.664Z,22.08
2022-11-22T21:19:01.207Z,22.08
2022-11-22T21:21:30.460Z,22.09
2022-11-22T21:23:59.389Z,22.10
2022-11-22T21:26:28.968Z,22.14
2022-11-22T21:28:57.942Z,22.20
2022-11-22T21:31:25.911Z,22.23
2022-11-22T21:33:55.443Z,22.22
2022-11-22T21:36:25.088Z,22.23
2022-11-22T21:38:53.857Z,22.20
2022-11-22T21:44:11.541Z,22.19
2022-11-22T21:46:40.027Z,22.17
2022-11-22T21:49:09.084Z,22.17
2022-11-22T21:51:38.401Z,22.17
2022-11-22T21:54:07.364Z,22.14
2022-11-22T21:56:35.434Z,22.15
2022-11-22T21:59:04.192Z,22.15
2022-11-22T22:01:32.306Z,22.14
2022-11-22T22:04:01.009Z,22.13
2022-11-22T22:06:29.020Z,22.11
2022-11-22T22:08:59.684Z,22.09
2022-11-22T22:11:27.574Z,22.07
2022-11-22T22:13:56.482Z,22.06
2022-11-22T22:16:26.019Z,22.06
2022-11-22T22:18:56.423Z,22.04
2022-11-22T22:21:24.453Z,22.02
2022-11-22T22:23:53.462Z,22.02
2022-11-22T22:26:23.616Z,22.02
2022-11-22T22:28:53.428Z,22.00
2022-11-22T22:31:23.240Z,21.99
2022-11-22T22:33:53.991Z,21.98
2022-11-22T22:36:22.750Z,21.95
2022-11-22T22:39:46.475Z,21.94
2022-11-22T22:42:15.833Z,21.95
2022-11-22T22:44:45.444Z,21.93
2022-11-22T22:47:13.455Z,21.93
2022-11-22T22:49:42.143Z,21.94
2022-11-22T22:52:10.379Z,21.93
2022-11-22T22:54:38.284Z,21.95
2022-11-22T22:57:06.898Z,21.93
2022-11-22T22:59:36.220Z,21.93
2022-11-22T23:02:05.097Z,21.91
2022-11-22T23:04:32.990Z,21.93
2022-11-22T23:07:01.326Z,21.91
2022-11-22T23:09:29.440Z,21.91
2022-11-22T23:12:12.567Z,21.90
2022-11-22T23:14:41.940Z,21.89
2022-11-22T23:17:10.241Z,21.88
2022-11-22T23:19:38.167Z,21.87
2022-11-22T23:22:06.264Z,21.86
2022-11-22T23:24:34.245Z,21.86
2022-11-22T23:27:02.202Z,21.85
2022-11-22T23:29:30.795Z,21.85
2022-11-22T23:32:00.314Z,21.83
2022-11-22T23:34:28.216Z,21.84
2022-11-22T23:36:57.453Z,21.81
2022-11-22T23:39:26.612Z,21.83
2022-11-22T23:41:55.837Z,21.82
2022-11-22T23:44:25.239Z,21.80
2022-11-22T23:46:54.265Z,21.77
2022-11-22T23:49:25.176Z,21.76
2022-11-22T23:51:54.567Z,21.73
2022-11-22T23:54:23.519Z,21.72
2022-11-22T23:56:52.709Z,21.71
2022-11-22T23:59:22.464Z,21.70
